sensor_id;sensor_type;location;lat;lon;timestamp;pressure;altitude;pressure_sealevel;temperature
7389;BMP180;3735;50.136;11.062;2023-05-07T00:00:07;98261.00;;;13.60
7389;BMP180;3735;50.136;11.062;2023-05-07T00:02:34;98246.00;;;13.60
7389;BMP180;3735;50.136;11.062;2023-05-07T00:04:59;98260.00;;;13.60
7389;BMP180;3735;50.136;11.062;2023-05-07T00:07:25;98271.00;;;13.50
7389;BMP180;3735;50.136;11.062;2023-05-07T00:09:51;98270.00;;;13.50
7389;BMP180;3735;50.136;11.062;2023-05-07T00:12:17;98280.00;;;13.50
7389;BMP180;3735;50.136;11.062;2023-05-07T00:14:42;98275.00;;;13.50
7389;BMP180;3735;50.136;11.062;2023-05-07T00:17:08;98274.00;;;13.40
7389;BMP180;3735;50.136;11.062;2023-05-07T00:19:34;98272.00;;;13.50
7389;BMP180;3735;50.136;11.062;2023-05-07T00:22:00;98267.00;;;13.50
7389;BMP180;3735;50.136;11.062;2023-05-07T00:24:25;98266.00;;;13.50
7389;BMP180;3735;50.136;11.062;2023-05-07T00:26:51;98271.00;;;13.40
7389;BMP180;3735;50.136;11.062;2023-05-07T00:29:18;98241.00;;;13.40
7389;BMP180;3735;50.136;11.062;2023-05-07T00:31:43;98273.00;;;13.40
7389;BMP180;3735;50.136;11.062;2023-05-07T00:34:09;98275.00;;;13.20
7389;BMP180;3735;50.136;11.062;2023-05-07T00:36:35;98278.00;;;13.20
7389;BMP180;3735;50.136;11.062;2023-05-07T00:39:01;98275.00;;;13.20
7389;BMP180;3735;50.136;11.062;2023-05-07T00:41:29;98284.00;;;13.20
7389;BMP180;3735;50.136;11.062;2023-05-07T00:43:56;98284.00;;;13.20
7389;BMP180;3735;50.136;11.062;2023-05-07T00:46:23;98275.00;;;13.30
7389;BMP180;3735;50.136;11.062;2023-05-07T00:48:50;98270.00;;;13.30
7389;BMP180;3735;50.136;11.062;2023-05-07T00:51:17;98271.00;;;13.20
7389;BMP180;3735;50.136;11.062;2023-05-07T00:53:44;98280.00;;;13.10
7389;BMP180;3735;50.136;11.062;2023-05-07T00:56:10;98267.00;;;13.10
7389;BMP180;3735;50.136;11.062;2023-05-07T00:58:37;98253.00;;;13.10
7389;BMP180;3735;50.136;11.062;2023-05-07T01:01:03;98264.00;;;13.00
7389;BMP180;3735;50.136;11.062;2023-05-07T01:03:29;98234.00;;;12.90
7389;BMP180;3735;50.136;11.062;2023-05-07T01:05:58;98260.00;;;12.90
7389;BMP180;3735;50.136;11.062;2023-05-07T01:08:25;98264.00;;;12.90
7389;BMP180;3735;50.136;11.062;2023-05-07T01:10:55;98268.00;;;12.90
7389;BMP180;3735;50.136;11.062;2023-05-07T01:13:21;98266.00;;;12.90
7389;BMP180;3735;50.136;11.062;2023-05-07T01:15:48;98270.00;;;12.90
7389;BMP180;3735;50.136;11.062;2023-05-07T01:18:14;98262.00;;;13.00
7389;BMP180;3735;50.136;11.062;2023-05-07T01:20:42;98259.00;;;13.00
7389;BMP180;3735;50.136;11.062;2023-05-07T01:23:08;98258.00;;;12.90
7389;BMP180;3735;50.136;11.062;2023-05-07T01:25:35;98253.00;;;12.90
7389;BMP180;3735;50.136;11.062;2023-05-07T01:28:01;98261.00;;;12.90
7389;BMP180;3735;50.136;11.062;2023-05-07T01:30:28;98251.00;;;12.90
7389;BMP180;3735;50.136;11.062;2023-05-07T01:33:04;98254.00;;;13.00
7389;BMP180;3735;50.136;11.062;2023-05-07T01:35:40;98254.00;;;12.90
7389;BMP180;3735;50.136;11.062;2023-05-07T01:38:08;98254.00;;;12.90
7389;BMP180;3735;50.136;11.062;2023-05-07T01:40:34;98246.00;;;12.90
7389;BMP180;3735;50.136;11.062;2023-05-07T01:43:02;98247.00;;;12.90
7389;BMP180;3735;50.136;11.062;2023-05-07T01:45:30;98250.00;;;12.80
7389;BMP180;3735;50.136;11.062;2023-05-07T01:48:02;98253.00;;;12.90
7389;BMP180;3735;50.136;11.062;2023-05-07T01:50:29;98260.00;;;12.80
7389;BMP180;3735;50.136;11.062;2023-05-07T01:52:56;98263.00;;;12.80
7389;BMP180;3735;50.136;11.062;2023-05-07T01:55:22;98259.00;;;12.80
7389;BMP180;3735;50.136;11.062;2023-05-07T01:57:48;98264.00;;;12.80
7389;BMP180;3735;50.136;11.062;2023-05-07T02:00:14;98256.00;;;12.80
7389;BMP180;3735;50.136;11.062;2023-05-07T02:02:40;98245.00;;;12.80
7389;BMP180;3735;50.136;11.062;2023-05-07T02:05:06;98248.00;;;12.70
7389;BMP180;3735;50.136;11.062;2023-05-07T02:07:32;98244.00;;;12.70
7389;BMP180;3735;50.136;11.062;2023-05-07T02:09:57;98241.00;;;12.70
7389;BMP180;3735;50.136;11.062;2023-05-07T02:12:23;98236.00;;;12.60
7389;BMP180;3735;50.136;11.062;2023-05-07T02:14:49;98242.00;;;12.60
7389;BMP180;3735;50.136;11.062;2023-05-07T02:17:15;98235.00;;;12.60
7389;BMP180;3735;50.136;11.062;2023-05-07T02:19:41;98245.00;;;12.50
7389;BMP180;3735;50.136;11.062;2023-05-07T02:22:07;98248.00;;;12.50
7389;BMP180;3735;50.136;11.062;2023-05-07T02:24:33;98240.00;;;12.40
7389;BMP180;3735;50.136;11.062;2023-05-07T02:26:59;98240.00;;;12.30
7389;BMP180;3735;50.136;11.062;2023-05-07T02:29:25;98238.00;;;12.20
7389;BMP180;3735;50.136;11.062;2023-05-07T02:31:51;98249.00;;;12.10
7389;BMP180;3735;50.136;11.062;2023-05-07T02:34:18;98231.00;;;12.00
7389;BMP180;3735;50.136;11.062;2023-05-07T02:36:44;98266.00;;;11.90
7389;BMP180;3735;50.136;11.062;2023-05-07T02:39:12;98253.00;;;11.80
7389;BMP180;3735;50.136;11.062;2023-05-07T02:41:37;98262.00;;;11.70
7389;BMP180;3735;50.136;11.062;2023-05-07T02:44:04;98263.00;;;11.60
7389;BMP180;3735;50.136;11.062;2023-05-07T02:46:30;98260.00;;;11.50
7389;BMP180;3735;50.136;11.062;2023-05-07T02:48:55;98261.00;;;11.30
7389;BMP180;3735;50.136;11.062;2023-05-07T02:51:22;98254.00;;;11.50
7389;BMP180;3735;50.136;11.062;2023-05-07T02:53:48;98248.00;;;11.50
7389;BMP180;3735;50.136;11.062;2023-05-07T02:56:14;98256.00;;;11.60
7389;BMP180;3735;50.136;11.062;2023-05-07T02:58:40;98249.00;;;11.60
7389;BMP180;3735;50.136;11.062;2023-05-07T03:01:08;98250.00;;;11.60
7389;BMP180;3735;50.136;11.062;2023-05-07T03:03:34;98249.00;;;11.60
7389;BMP180;3735;50.136;11.062;2023-05-07T03:06:00;98251.00;;;11.60
7389;BMP180;3735;50.136;11.062;2023-05-07T03:08:26;98253.00;;;11.70
7389;BMP180;3735;50.136;11.062;2023-05-07T03:10:52;98249.00;;;11.60
7389;BMP180;3735;50.136;11.062;2023-05-07T03:13:18;98247.00;;;11.60
7389;BMP180;3735;50.136;11.062;2023-05-07T03:15:44;98249.00;;;11.60
7389;BMP180;3735;50.136;11.062;2023-05-07T03:18:10;98240.00;;;11.60
7389;BMP180;3735;50.136;11.062;2023-05-07T03:20:36;98246.00;;;11.50
7389;BMP180;3735;50.136;11.062;2023-05-07T03:23:02;98232.00;;;11.50
7389;BMP180;3735;50.136;11.062;2023-05-07T03:25:28;98233.00;;;11.50
7389;BMP180;3735;50.136;11.062;2023-05-07T03:27:56;98233.00;;;11.60
7389;BMP180;3735;50.136;11.062;2023-05-07T03:30:22;98242.00;;;11.50
7389;BMP180;3735;50.136;11.062;2023-05-07T03:32:48;98236.00;;;11.60
7389;BMP180;3735;50.136;11.062;2023-05-07T03:35:14;98245.00;;;11.60
7389;BMP180;3735;50.136;11.062;2023-05-07T03:37:58;98236.00;;;11.60
7389;BMP180;3735;50.136;11.062;2023-05-07T03:40:24;98239.00;;;11.60
7389;BMP180;3735;50.136;11.062;2023-05-07T03:42:50;98243.00;;;11.50
7389;BMP180;3735;50.136;11.062;2023-05-07T03:45:16;98244.00;;;11.50
7389;BMP180;3735;50.136;11.062;2023-05-07T03:47:41;98241.00;;;11.40
7389;BMP180;3735;50.136;11.062;2023-05-07T03:50:08;98250.00;;;11.50
7389;BMP180;3735;50.136;11.062;2023-05-07T03:52:34;98250.00;;;11.40
7389;BMP180;3735;50.136;11.062;2023-05-07T03:55:00;98252.00;;;11.40
7389;BMP180;3735;50.136;11.062;2023-05-07T03:57:26;98262.00;;;11.50
7389;BMP180;3735;50.136;11.062;2023-05-07T03:59:52;98260.00;;;11.40
7389;BMP180;3735;50.136;11.062;2023-05-07T04:02:17;98253.00;;;11.50
7389;BMP180;3735;50.136;11.062;2023-05-07T04:04:43;98257.00;;;11.50
7389;BMP180;3735;50.136;11.062;2023-05-07T04:07:09;98255.00;;;11.50
7389;BMP180;3735;50.136;11.062;2023-05-07T04:09:35;98258.00;;;11.50
7389;BMP180;3735;50.136;11.062;2023-05-07T04:12:01;98255.00;;;11.50
7389;BMP180;3735;50.136;11.062;2023-05-07T04:14:26;98263.00;;;11.50
7389;BMP180;3735;50.136;11.062;2023-05-07T04:16:52;98267.00;;;11.60
7389;BMP180;3735;50.136;11.062;2023-05-07T04:19:18;98269.00;;;11.70
7389;BMP180;3735;50.136;11.062;2023-05-07T04:21:44;98273.00;;;11.60
7389;BMP180;3735;50.136;11.062;2023-05-07T04:24:09;98278.00;;;11.60
7389;BMP180;3735;50.136;11.062;2023-05-07T04:26:35;98270.00;;;11.60
7389;BMP180;3735;50.136;11.062;2023-05-07T04:29:01;98265.00;;;11.70
7389;BMP180;3735;50.136;11.062;2023-05-07T04:31:27;98264.00;;;11.70
7389;BMP180;3735;50.136;11.062;2023-05-07T04:33:52;98268.00;;;11.70
7389;BMP180;3735;50.136;11.062;2023-05-07T04:36:18;98267.00;;;11.70
7389;BMP180;3735;50.136;11.062;2023-05-07T04:38:44;98284.00;;;11.70
7389;BMP180;3735;50.136;11.062;2023-05-07T04:41:12;98290.00;;;11.80
7389;BMP180;3735;50.136;11.062;2023-05-07T04:43:38;98286.00;;;11.80
7389;BMP180;3735;50.136;11.062;2023-05-07T04:46:04;98292.00;;;11.90
7389;BMP180;3735;50.136;11.062;2023-05-07T04:48:30;98287.00;;;12.00
7389;BMP180;3735;50.136;11.062;2023-05-07T04:50:56;98294.00;;;12.00
7389;BMP180;3735;50.136;11.062;2023-05-07T04:53:22;98289.00;;;12.10
7389;BMP180;3735;50.136;11.062;2023-05-07T04:55:48;98287.00;;;12.20
7389;BMP180;3735;50.136;11.062;2023-05-07T04:58:13;98284.00;;;12.60
7389;BMP180;3735;50.136;11.062;2023-05-07T05:00:40;98287.00;;;13.20
7389;BMP180;3735;50.136;11.062;2023-05-07T05:03:07;98291.00;;;13.70
7389;BMP180;3735;50.136;11.062;2023-05-07T05:05:33;98290.00;;;14.30
7389;BMP180;3735;50.136;11.062;2023-05-07T05:07:58;98294.00;;;14.70
7389;BMP180;3735;50.136;11.062;2023-05-07T05:10:24;98310.00;;;14.90
7389;BMP180;3735;50.136;11.062;2023-05-07T05:12:51;98312.00;;;15.10
7389;BMP180;3735;50.136;11.062;2023-05-07T05:15:16;98299.00;;;15.50
7389;BMP180;3735;50.136;11.062;2023-05-07T05:17:42;98305.00;;;16.10
7389;BMP180;3735;50.136;11.062;2023-05-07T05:20:08;98293.00;;;16.50
7389;BMP180;3735;50.136;11.062;2023-05-07T05:22:36;98295.00;;;16.70
7389;BMP180;3735;50.136;11.062;2023-05-07T05:25:02;98291.00;;;16.30
7389;BMP180;3735;50.136;11.062;2023-05-07T05:27:28;98297.00;;;16.00
7389;BMP180;3735;50.136;11.062;2023-05-07T05:29:54;98274.00;;;15.70
7389;BMP180;3735;50.136;11.062;2023-05-07T05:32:20;98300.00;;;15.30
7389;BMP180;3735;50.136;11.062;2023-05-07T05:34:47;98306.00;;;15.10
7389;BMP180;3735;50.136;11.062;2023-05-07T05:37:13;98299.00;;;15.50
7389;BMP180;3735;50.136;11.062;2023-05-07T05:39:39;98306.00;;;16.20
7389;BMP180;3735;50.136;11.062;2023-05-07T05:42:05;98296.00;;;17.00
7389;BMP180;3735;50.136;11.062;2023-05-07T05:44:30;98291.00;;;17.30
7389;BMP180;3735;50.136;11.062;2023-05-07T05:46:56;98283.00;;;17.40
7389;BMP180;3735;50.136;11.062;2023-05-07T05:49:24;98288.00;;;17.80
7389;BMP180;3735;50.136;11.062;2023-05-07T05:51:50;98285.00;;;18.00
7389;BMP180;3735;50.136;11.062;2023-05-07T05:54:16;98287.00;;;18.00
7389;BMP180;3735;50.136;11.062;2023-05-07T05:56:42;98274.00;;;18.10
7389;BMP180;3735;50.136;11.062;2023-05-07T05:59:08;98298.00;;;18.30
7389;BMP180;3735;50.136;11.062;2023-05-07T06:01:34;98296.00;;;18.30
7389;BMP180;3735;50.136;11.062;2023-05-07T06:04:00;98305.00;;;18.90
7389;BMP180;3735;50.136;11.062;2023-05-07T06:06:25;98305.00;;;19.80
7389;BMP180;3735;50.136;11.062;2023-05-07T06:08:51;98304.00;;;20.30
7389;BMP180;3735;50.136;11.062;2023-05-07T06:11:17;98290.00;;;21.20
7389;BMP180;3735;50.136;11.062;2023-05-07T06:13:43;98300.00;;;21.40
7389;BMP180;3735;50.136;11.062;2023-05-07T06:16:08;98309.00;;;20.40
7389;BMP180;3735;50.136;11.062;2023-05-07T06:18:34;98308.00;;;19.60
7389;BMP180;3735;50.136;11.062;2023-05-07T06:21:02;98307.00;;;18.90
7389;BMP180;3735;50.136;11.062;2023-05-07T06:23:27;98319.00;;;18.20
7389;BMP180;3735;50.136;11.062;2023-05-07T06:25:53;98323.00;;;17.70
7389;BMP180;3735;50.136;11.062;2023-05-07T06:28:19;98323.00;;;17.30
7389;BMP180;3735;50.136;11.062;2023-05-07T06:30:45;98321.00;;;17.10
7389;BMP180;3735;50.136;11.062;2023-05-07T06:33:11;98320.00;;;17.20
7389;BMP180;3735;50.136;11.062;2023-05-07T06:35:36;98325.00;;;16.90
7389;BMP180;3735;50.136;11.062;2023-05-07T06:38:02;98325.00;;;16.90
7389;BMP180;3735;50.136;11.062;2023-05-07T06:40:28;98321.00;;;16.60
7389;BMP180;3735;50.136;11.062;2023-05-07T06:42:53;98335.00;;;16.60
7389;BMP180;3735;50.136;11.062;2023-05-07T06:45:20;98337.00;;;16.30
7389;BMP180;3735;50.136;11.062;2023-05-07T06:47:46;98341.00;;;16.40
7389;BMP180;3735;50.136;11.062;2023-05-07T06:50:12;98344.00;;;15.90
7389;BMP180;3735;50.136;11.062;2023-05-07T06:52:37;98335.00;;;16.10
7389;BMP180;3735;50.136;11.062;2023-05-07T06:55:04;98344.00;;;15.80
7389;BMP180;3735;50.136;11.062;2023-05-07T06:57:30;98340.00;;;16.00
7389;BMP180;3735;50.136;11.062;2023-05-07T06:59:56;98350.00;;;16.10
7389;BMP180;3735;50.136;11.062;2023-05-07T07:02:21;98341.00;;;16.10
7389;BMP180;3735;50.136;11.062;2023-05-07T07:04:47;98346.00;;;16.30
7389;BMP180;3735;50.136;11.062;2023-05-07T07:07:13;98335.00;;;16.50
7389;BMP180;3735;50.136;11.062;2023-05-07T07:09:39;98345.00;;;16.50
7389;BMP180;3735;50.136;11.062;2023-05-07T07:12:05;98338.00;;;16.70
7389;BMP180;3735;50.136;11.062;2023-05-07T07:14:30;98344.00;;;16.90
7389;BMP180;3735;50.136;11.062;2023-05-07T07:16:56;98331.00;;;17.10
7389;BMP180;3735;50.136;11.062;2023-05-07T07:19:22;98343.00;;;17.10
7389;BMP180;3735;50.136;11.062;2023-05-07T07:21:48;98337.00;;;17.10
7389;BMP180;3735;50.136;11.062;2023-05-07T07:24:14;98333.00;;;17.00
7389;BMP180;3735;50.136;11.062;2023-05-07T07:26:44;98319.00;;;17.10
7389;BMP180;3735;50.136;11.062;2023-05-07T07:29:10;98328.00;;;17.30
7389;BMP180;3735;50.136;11.062;2023-05-07T07:31:36;98337.00;;;17.40
7389;BMP180;3735;50.136;11.062;2023-05-07T07:34:02;98335.00;;;17.60
7389;BMP180;3735;50.136;11.062;2023-05-07T07:36:27;98337.00;;;17.50
7389;BMP180;3735;50.136;11.062;2023-05-07T07:38:54;98335.00;;;17.70
7389;BMP180;3735;50.136;11.062;2023-05-07T07:41:20;98332.00;;;17.90
7389;BMP180;3735;50.136;11.062;2023-05-07T07:43:45;98324.00;;;18.00
7389;BMP180;3735;50.136;11.062;2023-05-07T07:46:12;98330.00;;;18.20
7389;BMP180;3735;50.136;11.062;2023-05-07T07:48:38;98332.00;;;18.30
7389;BMP180;3735;50.136;11.062;2023-05-07T07:51:04;98304.00;;;18.50
7389;BMP180;3735;50.136;11.062;2023-05-07T07:53:30;98322.00;;;18.60
7389;BMP180;3735;50.136;11.062;2023-05-07T07:55:56;98330.00;;;18.60
7389;BMP180;3735;50.136;11.062;2023-05-07T07:58:22;98334.00;;;18.90
7389;BMP180;3735;50.136;11.062;2023-05-07T08:00:48;98335.00;;;18.70
7389;BMP180;3735;50.136;11.062;2023-05-07T08:03:14;98336.00;;;18.40
7389;BMP180;3735;50.136;11.062;2023-05-07T08:05:42;98337.00;;;18.70
7389;BMP180;3735;50.136;11.062;2023-05-07T08:08:08;98341.00;;;19.00
7389;BMP180;3735;50.136;11.062;2023-05-07T08:10:34;98330.00;;;19.20
7389;BMP180;3735;50.136;11.062;2023-05-07T08:13:00;98342.00;;;19.30
7389;BMP180;3735;50.136;11.062;2023-05-07T08:15:28;98340.00;;;19.20
7389;BMP180;3735;50.136;11.062;2023-05-07T08:17:54;98334.00;;;19.00
7389;BMP180;3735;50.136;11.062;2023-05-07T08:20:23;98339.00;;;19.10
7389;BMP180;3735;50.136;11.062;2023-05-07T08:22:49;98335.00;;;19.50
7389;BMP180;3735;50.136;11.062;2023-05-07T08:25:15;98334.00;;;19.60
7389;BMP180;3735;50.136;11.062;2023-05-07T08:27:40;98331.00;;;20.00
7389;BMP180;3735;50.136;11.062;2023-05-07T08:30:07;98340.00;;;20.70
7389;BMP180;3735;50.136;11.062;2023-05-07T08:32:33;98335.00;;;21.10
7389;BMP180;3735;50.136;11.062;2023-05-07T08:34:59;98332.00;;;21.70
7389;BMP180;3735;50.136;11.062;2023-05-07T08:37:25;98326.00;;;22.20
7389;BMP180;3735;50.136;11.062;2023-05-07T08:39:51;98323.00;;;22.70
7389;BMP180;3735;50.136;11.062;2023-05-07T08:42:17;98324.00;;;22.60
7389;BMP180;3735;50.136;11.062;2023-05-07T08:44:45;98316.00;;;23.30
7389;BMP180;3735;50.136;11.062;2023-05-07T08:47:12;98332.00;;;23.00
7389;BMP180;3735;50.136;11.062;2023-05-07T08:49:38;98332.00;;;22.90
7389;BMP180;3735;50.136;11.062;2023-05-07T08:52:05;98325.00;;;23.10
7389;BMP180;3735;50.136;11.062;2023-05-07T08:54:32;98328.00;;;22.70
7389;BMP180;3735;50.136;11.062;2023-05-07T08:56:58;98331.00;;;23.00
7389;BMP180;3735;50.136;11.062;2023-05-07T08:59:25;98330.00;;;22.90
7389;BMP180;3735;50.136;11.062;2023-05-07T09:01:51;98328.00;;;23.30
7389;BMP180;3735;50.136;11.062;2023-05-07T09:04:17;98328.00;;;24.10
7389;BMP180;3735;50.136;11.062;2023-05-07T09:06:42;98336.00;;;23.90
7389;BMP180;3735;50.136;11.062;2023-05-07T09:09:08;98326.00;;;23.90
7389;BMP180;3735;50.136;11.062;2023-05-07T09:11:34;98333.00;;;23.80
7389;BMP180;3735;50.136;11.062;2023-05-07T09:14:00;98330.00;;;24.30
7389;BMP180;3735;50.136;11.062;2023-05-07T09:16:30;98333.00;;;23.90
7389;BMP180;3735;50.136;11.062;2023-05-07T09:18:59;98331.00;;;24.40
7389;BMP180;3735;50.136;11.062;2023-05-07T09:21:26;98324.00;;;25.00
7389;BMP180;3735;50.136;11.062;2023-05-07T09:23:54;98315.00;;;25.50
7389;BMP180;3735;50.136;11.062;2023-05-07T09:26:24;98321.00;;;25.50
7389;BMP180;3735;50.136;11.062;2023-05-07T09:28:51;98324.00;;;26.40
7389;BMP180;3735;50.136;11.062;2023-05-07T09:31:18;98335.00;;;27.00
7389;BMP180;3735;50.136;11.062;2023-05-07T09:33:43;98333.00;;;27.00
7389;BMP180;3735;50.136;11.062;2023-05-07T09:36:10;98335.00;;;26.90
7389;BMP180;3735;50.136;11.062;2023-05-07T09:38:37;98331.00;;;26.30
7389;BMP180;3735;50.136;11.062;2023-05-07T09:43:37;98342.00;;;25.70
7389;BMP180;3735;50.136;11.062;2023-05-07T09:46:14;98337.00;;;25.50
7389;BMP180;3735;50.136;11.062;2023-05-07T09:48:42;98334.00;;;25.20
7389;BMP180;3735;50.136;11.062;2023-05-07T09:51:25;98348.00;;;24.50
7389;BMP180;3735;50.136;11.062;2023-05-07T09:53:54;98344.00;;;24.40
7389;BMP180;3735;50.136;11.062;2023-05-07T09:56:22;98329.00;;;24.10
7389;BMP180;3735;50.136;11.062;2023-05-07T09:58:52;98346.00;;;24.30
7389;BMP180;3735;50.136;11.062;2023-05-07T10:01:20;98341.00;;;24.60
7389;BMP180;3735;50.136;11.062;2023-05-07T10:03:49;98344.00;;;24.60
7389;BMP180;3735;50.136;11.062;2023-05-07T10:06:17;98338.00;;;25.00
7389;BMP180;3735;50.136;11.062;2023-05-07T10:08:43;98336.00;;;25.60
7389;BMP180;3735;50.136;11.062;2023-05-07T10:11:10;98336.00;;;25.40
7389;BMP180;3735;50.136;11.062;2023-05-07T10:13:36;98335.00;;;25.50
7389;BMP180;3735;50.136;11.062;2023-05-07T10:16:04;98334.00;;;25.30
7389;BMP180;3735;50.136;11.062;2023-05-07T10:18:32;98334.00;;;25.40
7389;BMP180;3735;50.136;11.062;2023-05-07T10:21:13;98333.00;;;26.00
7389;BMP180;3735;50.136;11.062;2023-05-07T10:23:51;98325.00;;;26.00
7389;BMP180;3735;50.136;11.062;2023-05-07T10:26:21;98332.00;;;26.10
7389;BMP180;3735;50.136;11.062;2023-05-07T10:28:56;98326.00;;;26.80
7389;BMP180;3735;50.136;11.062;2023-05-07T10:32:13;98335.00;;;26.90
7389;BMP180;3735;50.136;11.062;2023-05-07T10:34:36;98332.00;;;26.60
7389;BMP180;3735;50.136;11.062;2023-05-07T10:37:03;98327.00;;;26.60
7389;BMP180;3735;50.136;11.062;2023-05-07T10:39:30;98316.00;;;26.50
7389;BMP180;3735;50.136;11.062;2023-05-07T10:41:56;98319.00;;;26.60
7389;BMP180;3735;50.136;11.062;2023-05-07T10:44:29;98299.00;;;26.90
7389;BMP180;3735;50.136;11.062;2023-05-07T10:47:08;98323.00;;;27.60
7389;BMP180;3735;50.136;11.062;2023-05-07T10:52:23;98311.00;;;27.50
7389;BMP180;3735;50.136;11.062;2023-05-07T10:57:46;98312.00;;;27.40
7389;BMP180;3735;50.136;11.062;2023-05-07T11:03:11;98309.00;;;27.40
7389;BMP180;3735;50.136;11.062;2023-05-07T11:05:37;98313.00;;;27.70
7389;BMP180;3735;50.136;11.062;2023-05-07T11:08:04;98314.00;;;27.90
7389;BMP180;3735;50.136;11.062;2023-05-07T11:10:57;98319.00;;;28.40
7389;BMP180;3735;50.136;11.062;2023-05-07T11:13:53;98311.00;;;28.00
7389;BMP180;3735;50.136;11.062;2023-05-07T11:16:24;98311.00;;;28.40
7389;BMP180;3735;50.136;11.062;2023-05-07T11:18:54;98312.00;;;28.80
7389;BMP180;3735;50.136;11.062;2023-05-07T11:21:40;98306.00;;;28.70
7389;BMP180;3735;50.136;11.062;2023-05-07T11:24:08;98304.00;;;28.80
7389;BMP180;3735;50.136;11.062;2023-05-07T11:26:48;98309.00;;;29.30
7389;BMP180;3735;50.136;11.062;2023-05-07T11:29:20;98316.00;;;29.30
7389;BMP180;3735;50.136;11.062;2023-05-07T11:31:52;98309.00;;;28.30
7389;BMP180;3735;50.136;11.062;2023-05-07T11:34:24;98319.00;;;28.30
7389;BMP180;3735;50.136;11.062;2023-05-07T11:36:51;98314.00;;;27.70
7389;BMP180;3735;50.136;11.062;2023-05-07T11:39:26;98318.00;;;27.70
7389;BMP180;3735;50.136;11.062;2023-05-07T11:41:51;98311.00;;;28.00
7389;BMP180;3735;50.136;11.062;2023-05-07T11:44:17;98316.00;;;28.60
7389;BMP180;3735;50.136;11.062;2023-05-07T11:46:44;98322.00;;;29.40
7389;BMP180;3735;50.136;11.062;2023-05-07T11:49:10;98310.00;;;29.60
7389;BMP180;3735;50.136;11.062;2023-05-07T11:51:36;98317.00;;;30.00
7389;BMP180;3735;50.136;11.062;2023-05-07T11:54:06;98319.00;;;30.40
7389;BMP180;3735;50.136;11.062;2023-05-07T11:56:37;98314.00;;;30.40
7389;BMP180;3735;50.136;11.062;2023-05-07T11:59:03;98310.00;;;31.10
7389;BMP180;3735;50.136;11.062;2023-05-07T12:01:29;98309.00;;;30.70
7389;BMP180;3735;50.136;11.062;2023-05-07T12:03:54;98306.00;;;31.60
7389;BMP180;3735;50.136;11.062;2023-05-07T12:06:20;98303.00;;;32.00
7389;BMP180;3735;50.136;11.062;2023-05-07T12:08:46;98308.00;;;31.90
7389;BMP180;3735;50.136;11.062;2023-05-07T12:11:25;98316.00;;;31.20
7389;BMP180;3735;50.136;11.062;2023-05-07T12:13:51;98315.00;;;30.40
7389;BMP180;3735;50.136;11.062;2023-05-07T12:16:19;98313.00;;;31.20
7389;BMP180;3735;50.136;11.062;2023-05-07T12:18:46;98317.00;;;31.10
7389;BMP180;3735;50.136;11.062;2023-05-07T12:21:13;98319.00;;;31.00
7389;BMP180;3735;50.136;11.062;2023-05-07T12:23:39;98311.00;;;29.60
7389;BMP180;3735;50.136;11.062;2023-05-07T12:26:05;98311.00;;;28.60
7389;BMP180;3735;50.136;11.062;2023-05-07T12:28:37;98311.00;;;27.10
7389;BMP180;3735;50.136;11.062;2023-05-07T12:31:04;98312.00;;;27.10
7389;BMP180;3735;50.136;11.062;2023-05-07T12:33:31;98314.00;;;27.00
7389;BMP180;3735;50.136;11.062;2023-05-07T12:35:58;98303.00;;;27.00
7389;BMP180;3735;50.136;11.062;2023-05-07T12:38:37;98309.00;;;27.00
7389;BMP180;3735;50.136;11.062;2023-05-07T12:41:04;98311.00;;;26.70
7389;BMP180;3735;50.136;11.062;2023-05-07T12:43:30;98314.00;;;26.30
7389;BMP180;3735;50.136;11.062;2023-05-07T12:46:07;98302.00;;;26.30
7389;BMP180;3735;50.136;11.062;2023-05-07T12:48:33;98310.00;;;25.90
7389;BMP180;3735;50.136;11.062;2023-05-07T12:51:02;98303.00;;;26.10
7389;BMP180;3735;50.136;11.062;2023-05-07T12:53:29;98302.00;;;25.50
7389;BMP180;3735;50.136;11.062;2023-05-07T12:55:57;98296.00;;;25.60
7389;BMP180;3735;50.136;11.062;2023-05-07T12:58:29;98300.00;;;25.20
7389;BMP180;3735;50.136;11.062;2023-05-07T13:00:59;98298.00;;;25.60
7389;BMP180;3735;50.136;11.062;2023-05-07T13:03:29;98298.00;;;26.00
7389;BMP180;3735;50.136;11.062;2023-05-07T13:06:01;98293.00;;;26.50
7389;BMP180;3735;50.136;11.062;2023-05-07T13:08:31;98293.00;;;27.20
7389;BMP180;3735;50.136;11.062;2023-05-07T13:11:00;98294.00;;;27.90
7389;BMP180;3735;50.136;11.062;2023-05-07T13:13:34;98295.00;;;27.40
7389;BMP180;3735;50.136;11.062;2023-05-07T13:16:02;98286.00;;;27.70
7389;BMP180;3735;50.136;11.062;2023-05-07T13:18:30;98291.00;;;27.30
7389;BMP180;3735;50.136;11.062;2023-05-07T13:20:57;98293.00;;;26.30
7389;BMP180;3735;50.136;11.062;2023-05-07T13:23:23;98284.00;;;26.00
7389;BMP180;3735;50.136;11.062;2023-05-07T13:25:49;98274.00;;;27.00
7389;BMP180;3735;50.136;11.062;2023-05-07T13:28:16;98262.00;;;27.20
7389;BMP180;3735;50.136;11.062;2023-05-07T13:30:42;98282.00;;;26.70
7389;BMP180;3735;50.136;11.062;2023-05-07T13:33:09;98255.00;;;26.10
7389;BMP180;3735;50.136;11.062;2023-05-07T13:35:35;98271.00;;;26.30
7389;BMP180;3735;50.136;11.062;2023-05-07T13:38:01;98266.00;;;26.50
7389;BMP180;3735;50.136;11.062;2023-05-07T13:40:27;98270.00;;;26.50
7389;BMP180;3735;50.136;11.062;2023-05-07T13:42:53;98259.00;;;27.00
7389;BMP180;3735;50.136;11.062;2023-05-07T13:45:19;98259.00;;;27.40
7389;BMP180;3735;50.136;11.062;2023-05-07T13:47:46;98262.00;;;27.50
7389;BMP180;3735;50.136;11.062;2023-05-07T13:50:13;98252.00;;;27.90
7389;BMP180;3735;50.136;11.062;2023-05-07T13:52:43;98252.00;;;28.80
7389;BMP180;3735;50.136;11.062;2023-05-07T13:55:19;98257.00;;;28.30
7389;BMP180;3735;50.136;11.062;2023-05-07T13:57:46;98253.00;;;27.20
7389;BMP180;3735;50.136;11.062;2023-05-07T14:00:13;98246.00;;;27.90
7389;BMP180;3735;50.136;11.062;2023-05-07T14:02:40;98242.00;;;29.10
7389;BMP180;3735;50.136;11.062;2023-05-07T14:05:07;98244.00;;;30.30
7389;BMP180;3735;50.136;11.062;2023-05-07T14:07:33;98240.00;;;31.00
7389;BMP180;3735;50.136;11.062;2023-05-07T14:09:59;98235.00;;;31.20
7389;BMP180;3735;50.136;11.062;2023-05-07T14:12:25;98238.00;;;31.10
7389;BMP180;3735;50.136;11.062;2023-05-07T14:14:50;98241.00;;;30.80
7389;BMP180;3735;50.136;11.062;2023-05-07T14:17:17;98251.00;;;29.80
7389;BMP180;3735;50.136;11.062;2023-05-07T14:19:43;98252.00;;;28.10
7389;BMP180;3735;50.136;11.062;2023-05-07T14:22:10;98248.00;;;27.20
7389;BMP180;3735;50.136;11.062;2023-05-07T14:24:36;98252.00;;;26.30
7389;BMP180;3735;50.136;11.062;2023-05-07T14:27:02;98255.00;;;26.30
7389;BMP180;3735;50.136;11.062;2023-05-07T14:29:28;98251.00;;;25.90
7389;BMP180;3735;50.136;11.062;2023-05-07T14:31:54;98255.00;;;26.10